Time;durP1;ratioP1;P1;durP2;ratioP2;P2;SDS_P1;SDS_P2;PMS_P1;PMS_P2;Temp;Humidity;BMP_temperature;BMP_pressure;BME280_temperature;BME280_humidity;BME280_pressure;Samples;Min_cycle;Max_cycle;Signal;HPM_P1;HPM_P2
2023/10/02 00:00:39;;;;;;;6.17;4.23;;;;;;;;;;5068828;28;20233;-82
2023/10/02 00:03:09;;;;;;;9.70;4.83;;;;;;;;;;5072703;28;20224;-82
2023/10/02 00:05:41;;;;;;;6.50;4.23;;;;;;;;;;5071766;28;20309;-82
2023/10/02 00:08:25;;;;;;;8.93;4.80;;;;;;;;;;5071994;28;20211;-82
2023/10/02 00:10:53;;;;;;;7.57;4.97;;;;;;;;;;5059546;28;20297;-82
2023/10/02 00:13:21;;;;;;;9.17;4.40;;;;;;;;;;5052678;28;20205;-81
2023/10/02 00:15:50;;;;;;;8.53;4.43;;;;;;;;;;5051926;28;20230;-82
2023/10/02 00:18:20;;;;;;;10.07;5.07;;;;;;;;;;5064797;28;20201;-81
2023/10/02 00:21:17;;;;;;;13.93;5.20;;;;;;;;;;5071208;28;20252;-82
2023/10/02 00:23:35;;;;;;;6.07;4.70;;;;;;;;;;5057629;28;20206;-83
2023/10/02 00:26:04;;;;;;;8.33;4.93;;;;;;;;;;5052402;28;20224;-82
2023/10/02 00:28:33;;;;;;;8.10;4.53;;;;;;;;;;5056992;28;20202;-82
2023/10/02 00:31:00;;;;;;;12.80;5.30;;;;;;;;;;5072282;28;20213;-81
2023/10/02 00:33:31;;;;;;;8.30;4.20;;;;;;;;;;5072086;28;20202;-83
2023/10/02 00:35:59;;;;;;;9.30;4.87;;;;;;;;;;5072316;28;20232;-81
2023/10/02 00:38:26;;;;;;;7.50;4.40;;;;;;;;;;5072664;28;20735;-82
2023/10/02 00:40:53;;;;;;;7.33;4.93;;;;;;;;;;5072433;28;20240;-82
2023/10/02 00:46:02;;;;;;;6.63;4.50;;;;;;;;;;5069024;28;20229;-82
2023/10/02 00:48:29;;;;;;;7.40;4.67;;;;;;;;;;5072231;28;20205;-82
2023/10/02 00:50:59;;;;;;;6.17;4.07;;;;;;;;;;5072888;28;20205;-82
2023/10/02 00:53:37;;;;;;;6.93;4.10;;;;;;;;;;5072534;28;20206;-82
2023/10/02 00:56:04;;;;;;;7.37;4.30;;;;;;;;;;5071663;28;20229;-81
2023/10/02 00:58:34;;;;;;;7.03;4.57;;;;;;;;;;5072046;28;20198;-82
2023/10/02 01:01:03;;;;;;;9.27;4.93;;;;;;;;;;5072325;28;20242;-81
2023/10/02 01:04:06;;;;;;;10.00;5.23;;;;;;;;;;5067982;28;20211;-82
2023/10/02 01:06:21;;;;;;;10.37;4.40;;;;;;;;;;5054010;28;20587;-82
2023/10/02 01:08:49;;;;;;;7.60;4.83;;;;;;;;;;5051958;28;20284;-82
2023/10/02 01:11:16;;;;;;;7.57;4.73;;;;;;;;;;5072182;28;20329;-82
2023/10/02 01:13:45;;;;;;;6.90;4.70;;;;;;;;;;5063543;28;20202;-82
2023/10/02 01:16:13;;;;;;;6.80;4.43;;;;;;;;;;5051751;28;20264;-81
2023/10/02 01:18:41;;;;;;;9.73;4.47;;;;;;;;;;5054417;28;20307;-82
2023/10/02 01:21:11;;;;;;;10.63;4.20;;;;;;;;;;5056004;28;20213;-82
2023/10/02 01:23:43;;;;;;;5.73;4.63;;;;;;;;;;5055959;28;20206;-82
2023/10/02 01:26:10;;;;;;;7.17;4.37;;;;;;;;;;5070859;28;20201;-81
2023/10/02 01:28:49;;;;;;;9.37;4.83;;;;;;;;;;5075617;28;20216;-82
2023/10/02 01:33:59;;;;;;;5.73;3.73;;;;;;;;;;5075180;28;20224;-81
2023/10/02 01:36:28;;;;;;;6.67;4.27;;;;;;;;;;5077044;28;20221;-82
2023/10/02 01:38:59;;;;;;;5.67;4.30;;;;;;;;;;5077859;28;20237;-82
2023/10/02 01:41:27;;;;;;;9.10;4.33;;;;;;;;;;5064109;28;20567;-82
2023/10/02 01:43:56;;;;;;;8.83;4.57;;;;;;;;;;5057281;28;20234;-81
2023/10/02 01:46:23;;;;;;;7.30;4.20;;;;;;;;;;5055218;28;20661;-81
2023/10/02 01:48:51;;;;;;;7.60;4.70;;;;;;;;;;5060771;28;20228;-82
2023/10/02 01:51:26;;;;;;;8.57;4.50;;;;;;;;;;5075424;28;20209;-81
2023/10/02 01:53:54;;;;;;;5.67;3.83;;;;;;;;;;5071659;28;20260;-81
2023/10/02 01:56:26;;;;;;;6.53;4.30;;;;;;;;;;5057721;28;20206;-84
2023/10/02 01:58:54;;;;;;;5.97;3.70;;;;;;;;;;5074974;28;20240;-84
2023/10/02 02:01:22;;;;;;;8.10;4.27;;;;;;;;;;5075421;28;20205;-85
2023/10/02 02:03:50;;;;;;;6.47;4.00;;;;;;;;;;5060452;28;20229;-84
2023/10/02 02:06:20;;;;;;;6.20;3.97;;;;;;;;;;5055137;28;20565;-84
2023/10/02 02:08:53;;;;;;;7.53;4.50;;;;;;;;;;5054879;28;20257;-84
2023/10/02 02:11:21;;;;;;;5.47;3.97;;;;;;;;;;5055447;28;20194;-84
2023/10/02 02:13:50;;;;;;;8.13;4.40;;;;;;;;;;5054826;28;20245;-84
2023/10/02 02:16:21;;;;;;;6.57;4.40;;;;;;;;;;5055076;28;20283;-84
2023/10/02 02:18:50;;;;;;;7.50;4.07;;;;;;;;;;5054245;28;20279;-85
2023/10/02 02:21:18;;;;;;;7.87;4.03;;;;;;;;;;5055112;28;20210;-84
2023/10/02 02:23:45;;;;;;;8.37;4.10;;;;;;;;;;5054502;28;20257;-84
2023/10/02 02:26:20;;;;;;;9.53;4.73;;;;;;;;;;5055200;28;20202;-84
2023/10/02 02:28:47;;;;;;;6.30;3.93;;;;;;;;;;5053566;28;20704;-84
2023/10/02 02:34:14;;;;;;;5.00;3.77;;;;;;;;;;5124224;27;20625;-83
2023/10/02 02:36:42;;;;;;;6.70;4.27;;;;;;;;;;5110774;28;20241;-82
2023/10/02 02:39:16;;;;;;;5.83;4.37;;;;;;;;;;5103378;27;20240;-83
2023/10/02 02:41:44;;;;;;;6.87;4.37;;;;;;;;;;5089767;28;20663;-83
2023/10/02 02:44:29;;;;;;;6.17;4.30;;;;;;;;;;5089517;27;20236;-83
2023/10/02 02:46:56;;;;;;;6.30;3.77;;;;;;;;;;5089906;28;20218;-82
2023/10/02 02:49:27;;;;;;;5.77;4.00;;;;;;;;;;5089117;27;20605;-81
2023/10/02 02:51:56;;;;;;;5.33;3.67;;;;;;;;;;5089872;28;20204;-85
2023/10/02 02:54:25;;;;;;;4.57;3.63;;;;;;;;;;5089094;27;20241;-84
2023/10/02 02:56:56;;;;;;;5.10;3.43;;;;;;;;;;5089520;28;20213;-84
2023/10/02 02:59:26;;;;;;;3.23;2.90;;;;;;;;;;5089440;27;20228;-85
2023/10/02 03:02:08;;;;;;;6.03;4.03;;;;;;;;;;5089888;28;20200;-84
2023/10/02 03:04:38;;;;;;;9.37;3.80;;;;;;;;;;5089189;27;20332;-84
2023/10/02 03:07:09;;;;;;;5.87;3.73;;;;;;;;;;5069458;28;20232;-85
2023/10/02 03:09:36;;;;;;;7.60;4.27;;;;;;;;;;5068804;28;20733;-84
2023/10/02 03:12:05;;;;;;;5.57;3.93;;;;;;;;;;5069439;28;20212;-84
2023/10/02 03:14:33;;;;;;;7.00;4.10;;;;;;;;;;5068810;28;20237;-85
2023/10/02 03:17:22;;;;;;;4.77;3.77;;;;;;;;;;5069470;28;20213;-85
2023/10/02 03:19:49;;;;;;;6.50;4.70;;;;;;;;;;5068434;28;20267;-85
2023/10/02 03:22:20;;;;;;;8.03;4.50;;;;;;;;;;5068850;28;20209;-84
2023/10/02 03:24:48;;;;;;;5.87;4.20;;;;;;;;;;5068156;28;20261;-85
2023/10/02 03:27:15;;;;;;;7.63;4.40;;;;;;;;;;5068585;28;20206;-84
2023/10/02 03:29:43;;;;;;;5.77;3.27;;;;;;;;;;5068062;28;20241;-84
2023/10/02 03:32:12;;;;;;;5.30;3.70;;;;;;;;;;5068833;28;20213;-85
2023/10/02 03:34:48;;;;;;;4.90;3.93;;;;;;;;;;5067826;28;20249;-84
2023/10/02 03:37:21;;;;;;;5.37;3.80;;;;;;;;;;5080620;28;20193;-84
2023/10/02 03:40:13;;;;;;;5.43;4.33;;;;;;;;;;5088448;28;20239;-84
2023/10/02 03:42:40;;;;;;;9.40;4.00;;;;;;;;;;5088994;28;20205;-84
2023/10/02 03:45:08;;;;;;;11.43;4.30;;;;;;;;;;5076497;28;20238;-85
2023/10/02 03:47:36;;;;;;;4.40;3.67;;;;;;;;;;5075680;28;20288;-84
2023/10/02 03:50:04;;;;;;;6.13;3.70;;;;;;;;;;5074587;28;20233;-84
2023/10/02 03:52:33;;;;;;;7.33;4.07;;;;;;;;;;5074867;28;20320;-85
2023/10/02 03:55:14;;;;;;;8.00;3.73;;;;;;;;;;5074455;28;20240;-85
2023/10/02 03:57:50;;;;;;;7.60;3.80;;;;;;;;;;5075268;28;20292;-84
2023/10/02 04:00:19;;;;;;;8.53;3.90;;;;;;;;;;5054539;28;20312;-85
2023/10/02 04:02:47;;;;;;;4.93;3.53;;;;;;;;;;5062548;28;20189;-85
2023/10/02 04:05:30;;;;;;;5.07;4.07;;;;;;;;;;5074293;28;20757;-84
2023/10/02 04:08:13;;;;;;;7.57;3.67;;;;;;;;;;5075053;28;20236;-84
2023/10/02 04:10:51;;;;;;;6.40;4.03;;;;;;;;;;5074249;28;20229;-85
2023/10/02 04:13:20;;;;;;;7.80;4.23;;;;;;;;;;5074847;28;20217;-84
2023/10/02 04:15:48;;;;;;;6.00;3.73;;;;;;;;;;5074306;28;20283;-85
2023/10/02 04:18:45;;;;;;;7.70;4.23;;;;;;;;;;5057889;28;20225;-85
2023/10/02 04:21:09;;;;;;;6.03;3.87;;;;;;;;;;5094288;28;20574;-85
2023/10/02 04:23:42;;;;;;;7.13;4.50;;;;;;;;;;5094401;28;20654;-85
2023/10/02 04:26:20;;;;;;;6.27;4.60;;;;;;;;;;5095078;28;20238;-85
2023/10/02 04:28:54;;;;;;;7.50;4.90;;;;;;;;;;5094273;28;20228;-85
2023/10/02 04:31:22;;;;;;;6.40;4.37;;;;;;;;;;5094650;28;20677;-85
2023/10/02 04:34:14;;;;;;;8.07;4.90;;;;;;;;;;5093764;28;20236;-85
2023/10/02 04:36:41;;;;;;;6.47;4.30;;;;;;;;;;5094269;28;20201;-86
2023/10/02 04:39:51;;;;;;;8.33;4.47;;;;;;;;;;5094467;28;20237;-85
2023/10/02 04:42:14;;;;;;;10.93;4.00;;;;;;;;;;5095825;28;20208;-87
2023/10/02 04:44:47;;;;;;;6.20;4.23;;;;;;;;;;5101799;28;20323;-87
2023/10/02 04:47:17;;;;;;;8.07;4.43;;;;;;;;;;5101649;28;20205;-86
2023/10/02 04:50:34;;;;;;;6.33;4.47;;;;;;;;;;5096845;28;20237;-86
2023/10/02 04:52:53;;;;;;;6.47;4.10;;;;;;;;;;5094615;28;20291;-86
2023/10/02 04:55:24;;;;;;;8.37;4.93;;;;;;;;;;5093605;28;20252;-87
2023/10/02 04:57:52;;;;;;;7.03;4.43;;;;;;;;;;5094277;28;20789;-86
2023/10/02 05:00:32;;;;;;;6.87;3.53;;;;;;;;;;5094427;28;20236;-87
2023/10/02 05:03:09;;;;;;;7.43;4.27;;;;;;;;;;5094762;28;20219;-86
2023/10/02 05:05:42;;;;;;;6.00;3.83;;;;;;;;;;5094207;28;20236;-85
2023/10/02 05:08:18;;;;;;;7.40;4.30;;;;;;;;;;5094679;28;20193;-86
2023/10/02 05:10:49;;;;;;;6.20;3.73;;;;;;;;;;5098586;28;20235;-89
2023/10/02 05:13:44;;;;;;;6.40;3.40;;;;;;;;;;5110058;28;20307;-88
2023/10/02 05:16:07;;;;;;;7.90;4.70;;;;;;;;;;5109216;28;20225;-88
2023/10/02 05:18:34;;;;;;;9.27;4.20;;;;;;;;;;5109927;28;20223;-88
2023/10/02 05:21:01;;;;;;;5.60;3.77;;;;;;;;;;5109375;28;20209;-88
2023/10/02 05:23:30;;;;;;;6.73;4.40;;;;;;;;;;5109135;28;20197;-88
2023/10/02 05:26:00;;;;;;;6.63;4.23;;;;;;;;;;5112554;28;20243;-89
2023/10/02 05:28:42;;;;;;;5.77;4.03;;;;;;;;;;5110787;28;20197;-89
2023/10/02 05:31:09;;;;;;;8.23;4.27;;;;;;;;;;5095043;28;20568;-88
2023/10/02 05:33:37;;;;;;;6.50;4.13;;;;;;;;;;5094353;28;20224;-89
2023/10/02 05:36:08;;;;;;;8.13;3.97;;;;;;;;;;5094832;28;20221;-89
2023/10/02 05:38:37;;;;;;;5.73;3.70;;;;;;;;;;5093941;28;20228;-88
2023/10/02 05:41:12;;;;;;;6.03;4.33;;;;;;;;;;5094563;28;20283;-88
2023/10/02 05:43:55;;;;;;;5.30;3.70;;;;;;;;;;5094185;28;20200;-88
2023/10/02 05:46:22;;;;;;;16.20;4.60;;;;;;;;;;5094985;28;20197;-88
2023/10/02 05:49:00;;;;;;;8.13;4.03;;;;;;;;;;5093555;28;20228;-87
2023/10/02 05:51:45;;;;;;;7.13;4.20;;;;;;;;;;5094282;28;20291;-87
2023/10/02 05:54:12;;;;;;;8.50;4.20;;;;;;;;;;5093975;28;20236;-87
2023/10/02 05:56:41;;;;;;;8.43;4.17;;;;;;;;;;5094434;28;20204;-88
2023/10/02 05:59:08;;;;;;;8.83;4.97;;;;;;;;;;5093624;28;20637;-88
2023/10/02 06:01:35;;;;;;;12.07;5.00;;;;;;;;;;5094374;28;20247;-88
2023/10/02 06:04:05;;;;;;;8.07;4.40;;;;;;;;;;5093673;28;20665;-87
2023/10/02 06:06:36;;;;;;;13.33;4.93;;;;;;;;;;5094120;28;20667;-88
2023/10/02 06:09:12;;;;;;;7.80;4.40;;;;;;;;;;5093746;28;20232;-87
2023/10/02 06:14:22;;;;;;;9.93;5.03;;;;;;;;;;5092641;28;20345;-88
2023/10/02 06:16:55;;;;;;;7.50;4.80;;;;;;;;;;5094347;28;20200;-88
2023/10/02 06:19:22;;;;;;;7.43;4.90;;;;;;;;;;5073715;28;20243;-88
2023/10/02 06:22:04;;;;;;;9.10;4.43;;;;;;;;;;5074520;28;20204;-89
2023/10/02 06:24:32;;;;;;;8.50;4.93;;;;;;;;;;5094476;28;20606;-89
2023/10/02 06:27:05;;;;;;;7.43;4.60;;;;;;;;;;5094360;28;20677;-89
2023/10/02 06:29:33;;;;;;;5.50;4.40;;;;;;;;;;5094361;28;20287;-89
2023/10/02 06:32:05;;;;;;;6.67;5.13;;;;;;;;;;5095162;28;22449;-88
2023/10/02 06:34:37;;;;;;;7.70;5.37;;;;;;;;;;5094896;28;20290;-89
2023/10/02 06:37:08;;;;;;;12.77;5.83;;;;;;;;;;5094894;28;20300;-89
2023/10/02 06:39:36;;;;;;;6.87;4.90;;;;;;;;;;5093745;28;20259;-88
2023/10/02 06:42:05;;;;;;;7.70;5.03;;;;;;;;;;5094623;28;20205;-89
2023/10/02 06:44:38;;;;;;;8.87;5.70;;;;;;;;;;5093976;28;20899;-89
2023/10/02 06:47:11;;;;;;;8.10;5.43;;;;;;;;;;5093783;28;20203;-90
2023/10/02 06:49:39;;;;;;;12.17;5.60;;;;;;;;;;5093545;28;20275;-90
2023/10/02 06:52:15;;;;;;;9.37;5.60;;;;;;;;;;5082913;28;20281;-90
2023/10/02 06:54:43;;;;;;;11.60;6.60;;;;;;;;;;5093093;28;20717;-90
2023/10/02 06:57:13;;;;;;;9.43;5.93;;;;;;;;;;5094120;28;20200;-90
2023/10/02 06:59:40;;;;;;;11.77;6.20;;;;;;;;;;5092925;28;20319;-90
2023/10/02 07:02:09;;;;;;;11.43;5.97;;;;;;;;;;5092949;28;20199;-92
2023/10/02 07:04:44;;;;;;;10.30;6.17;;;;;;;;;;5092978;28;20236;-88
2023/10/02 07:07:12;;;;;;;11.53;6.93;;;;;;;;;;5093421;28;20283;-90
2023/10/02 07:09:40;;;;;;;12.43;6.37;;;;;;;;;;5093168;28;20335;-88
2023/10/02 07:12:13;;;;;;;10.93;6.80;;;;;;;;;;5090600;28;20303;-88
2023/10/02 07:14:42;;;;;;;10.60;6.60;;;;;;;;;;5092629;28;20718;-88
2023/10/02 07:17:16;;;;;;;12.07;6.13;;;;;;;;;;5080290;28;20239;-88
2023/10/02 07:19:51;;;;;;;11.80;6.93;;;;;;;;;;5094022;28;20228;-89
2023/10/02 07:22:18;;;;;;;10.03;6.40;;;;;;;;;;5097817;28;20657;-87
2023/10/02 07:24:54;;;;;;;11.70;7.80;;;;;;;;;;5101173;28;20299;-89
2023/10/02 07:27:27;;;;;;;11.27;6.70;;;;;;;;;;5098471;28;20252;-92
2023/10/02 07:30:03;;;;;;;16.67;7.23;;;;;;;;;;5100479;28;20335;-92
2023/10/02 07:32:31;;;;;;;11.73;6.93;;;;;;;;;;5101530;28;20240;-92
2023/10/02 07:35:09;;;;;;;15.43;7.03;;;;;;;;;;5099893;28;20240;-92
2023/10/02 07:37:38;;;;;;;11.17;7.07;;;;;;;;;;5099177;28;20646;-92
2023/10/02 07:40:06;;;;;;;13.10;7.07;;;;;;;;;;5098887;28;20591;-93
2023/10/02 07:42:34;;;;;;;13.90;6.77;;;;;;;;;;5099536;28;20583;-92
2023/10/02 07:45:24;;;;;;;11.47;6.80;;;;;;;;;;5098375;28;20244;-89
2023/10/02 07:48:11;;;;;;;9.43;6.67;;;;;;;;;;5100807;28;20208;-88
2023/10/02 07:50:38;;;;;;;9.90;6.53;;;;;;;;;;5098645;28;20246;-89
2023/10/02 07:53:06;;;;;;;10.67;6.87;;;;;;;;;;5099086;28;20827;-88
2023/10/02 07:55:35;;;;;;;11.93;6.87;;;;;;;;;;5099815;28;20260;-89
2023/10/02 07:58:04;;;;;;;14.63;6.57;;;;;;;;;;5097634;28;20792;-87
2023/10/02 08:00:38;;;;;;;9.27;6.73;;;;;;;;;;5102685;22;20218;-85
2023/10/02 08:03:29;;;;;;;13.53;6.27;;;;;;;;;;5076622;28;20209;-83
2023/10/02 08:05:56;;;;;;;9.10;6.23;;;;;;;;;;5075475;28;20221;-83
2023/10/02 08:08:25;;;;;;;11.83;6.93;;;;;;;;;;5076053;28;20580;-83
2023/10/02 08:10:53;;;;;;;11.63;6.60;;;;;;;;;;5067994;28;20226;-83
2023/10/02 08:13:32;;;;;;;9.30;6.13;;;;;;;;;;5064036;28;20297;-84
2023/10/02 08:16:01;;;;;;;10.03;5.77;;;;;;;;;;5043811;28;20233;-83
2023/10/02 08:18:29;;;;;;;9.50;5.67;;;;;;;;;;5043754;28;20207;-83
2023/10/02 08:20:56;;;;;;;11.93;5.83;;;;;;;;;;5043994;28;20659;-83
2023/10/02 08:23:23;;;;;;;7.90;5.83;;;;;;;;;;5047191;28;20244;-85
2023/10/02 08:26:02;;;;;;;8.97;5.00;;;;;;;;;;5047200;28;20244;-85
2023/10/02 08:28:34;;;;;;;9.90;5.33;;;;;;;;;;5043736;28;20321;-86
2023/10/02 08:31:03;;;;;;;7.53;5.57;;;;;;;;;;5051220;28;20248;-86
2023/10/02 08:33:31;;;;;;;10.03;5.60;;;;;;;;;;5040058;28;20206;-87
2023/10/02 08:36:09;;;;;;;10.93;6.10;;;;;;;;;;5047670;28;20289;-87
2023/10/02 08:38:36;;;;;;;10.80;5.57;;;;;;;;;;5044053;28;20207;-87
2023/10/02 08:41:04;;;;;;;11.20;5.40;;;;;;;;;;5044287;28;20685;-87
2023/10/02 08:43:32;;;;;;;8.83;5.00;;;;;;;;;;5048742;28;20690;-86
2023/10/02 08:45:59;;;;;;;12.40;4.93;;;;;;;;;;5039395;28;20245;-86
2023/10/02 08:48:31;;;;;;;8.57;4.40;;;;;;;;;;5034810;28;20214;-85
2023/10/02 08:51:03;;;;;;;11.40;5.43;;;;;;;;;;5038935;28;20234;-86
2023/10/02 08:53:33;;;;;;;9.57;4.90;;;;;;;;;;5035276;28;20191;-85
2023/10/02 08:56:23;;;;;;;9.63;4.57;;;;;;;;;;5035413;28;20245;-85
2023/10/02 08:59:15;;;;;;;8.77;5.23;;;;;;;;;;5035057;28;20230;-86
2023/10/02 09:01:40;;;;;;;9.40;5.30;;;;;;;;;;5034817;28;20338;-84
2023/10/02 09:04:28;;;;;;;8.93;5.27;;;;;;;;;;5034834;28;20800;-84
2023/10/02 09:06:59;;;;;;;8.93;4.80;;;;;;;;;;5041455;28;20206;-84
2023/10/02 09:09:28;;;;;;;8.90;5.00;;;;;;;;;;5034698;28;20235;-84
2023/10/02 09:11:58;;;;;;;10.17;4.67;;;;;;;;;;5035460;28;20210;-85
2023/10/02 09:17:20;;;;;;;9.95;4.97;;;;;;;;;;5161357;27;20639;-85
2023/10/02 09:20:00;;;;;;;8.18;4.68;;;;;;;;;;5148704;27;20227;-85
2023/10/02 09:22:27;;;;;;;10.73;5.18;;;;;;;;;;5144134;27;20214;-85
2023/10/02 09:25:09;;;;;;;8.60;5.00;;;;;;;;;;5136500;27;20664;-85
2023/10/02 09:27:38;;;;;;;7.68;4.20;;;;;;;;;;5133201;27;20211;-85
2023/10/02 09:30:20;;;;;;;6.50;4.28;;;;;;;;;;5139720;27;20227;-84
2023/10/02 09:32:49;;;;;;;8.90;4.93;;;;;;;;;;5140564;27;20206;-85
2023/10/02 09:35:23;;;;;;;6.85;4.30;;;;;;;;;;5141461;27;20231;-85
2023/10/02 09:37:56;;;;;;;7.72;4.47;;;;;;;;;;5143865;27;20704;-85
2023/10/02 09:40:25;;;;;;;6.63;4.15;;;;;;;;;;5135056;27;20246;-85
2023/10/02 09:43:00;;;;;;;9.65;4.75;;;;;;;;;;5143971;27;20668;-85
2023/10/02 09:45:32;;;;;;;8.60;4.70;;;;;;;;;;5143278;27;20233;-85
2023/10/02 09:48:05;;;;;;;10.45;5.13;;;;;;;;;;5143812;27;20199;-85
2023/10/02 09:50:33;;;;;;;9.77;5.13;;;;;;;;;;5104784;27;20250;-85
2023/10/02 09:53:02;;;;;;;9.98;5.05;;;;;;;;;;5111047;28;20200;-85
2023/10/02 09:55:40;;;;;;;8.07;4.80;;;;;;;;;;5110102;27;20776;-85
2023/10/02 09:58:26;;;;;;;8.50;4.78;;;;;;;;;;5110766;28;20736;-85
2023/10/02 10:01:22;;;;;;;8.50;5.03;;;;;;;;;;5130982;27;20268;-85
2023/10/02 10:03:52;;;;;;;10.13;4.88;;;;;;;;;;5119294;27;20235;-85
2023/10/02 10:06:24;;;;;;;9.18;5.13;;;;;;;;;;5131054;27;20200;-85
2023/10/02 10:09:25;;;;;;;6.93;4.20;;;;;;;;;;5130825;27;20597;-85
2023/10/02 10:12:30;;;;;;;10.05;5.22;;;;;;;;;;5131037;27;20276;-85
2023/10/02 10:14:42;;;;;;;7.82;5.15;;;;;;;;;;5115417;27;20227;-85
2023/10/02 10:17:14;;;;;;;11.18;4.82;;;;;;;;;;5129169;27;20264;-85
2023/10/02 10:20:08;;;;;;;8.65;5.18;;;;;;;;;;5129140;27;20231;-85
2023/10/02 10:22:36;;;;;;;10.77;5.22;;;;;;;;;;5115250;28;20208;-85
2023/10/02 10:28:05;;;;;;;10.77;4.75;;;;;;;;;;5110028;28;20238;-85
2023/10/02 10:30:33;;;;;;;8.98;4.88;;;;;;;;;;5114365;27;20288;-85
2023/10/02 10:33:20;;;;;;;7.90;4.95;;;;;;;;;;5125651;27;20211;-85
2023/10/02 10:35:49;;;;;;;10.57;5.38;;;;;;;;;;5125111;27;20696;-86
2023/10/02 10:38:44;;;;;;;8.32;4.85;;;;;;;;;;5127024;27;20616;-86
2023/10/02 10:41:14;;;;;;;6.80;4.50;;;;;;;;;;5120089;27;20606;-86
2023/10/02 10:43:55;;;;;;;9.48;4.75;;;;;;;;;;5128583;27;20195;-86
2023/10/02 10:46:22;;;;;;;9.60;5.15;;;;;;;;;;5126656;27;20199;-86
2023/10/02 10:48:59;;;;;;;8.25;4.85;;;;;;;;;;5124951;27;20256;-85
2023/10/02 10:51:32;;;;;;;10.02;5.13;;;;;;;;;;5127359;27;20228;-86
2023/10/02 10:54:12;;;;;;;10.07;5.18;;;;;;;;;;5128418;27;20223;-85
2023/10/02 10:56:43;;;;;;;9.85;5.00;;;;;;;;;;5117310;27;20242;-85
2023/10/02 10:59:11;;;;;;;8.48;4.85;;;;;;;;;;5133094;27;20235;-85
2023/10/02 11:01:39;;;;;;;8.95;5.47;;;;;;;;;;5125111;27;20246;-85
2023/10/02 11:04:06;;;;;;;9.68;5.38;;;;;;;;;;5124726;27;20269;-86
2023/10/02 11:06:41;;;;;;;9.50;4.70;;;;;;;;;;5125026;27;20582;-85
2023/10/02 11:09:12;;;;;;;9.60;4.75;;;;;;;;;;5124487;27;20253;-85
2023/10/02 11:11:49;;;;;;;6.97;4.88;;;;;;;;;;5116992;27;20225;-85
2023/10/02 11:14:20;;;;;;;7.03;4.85;;;;;;;;;;5133086;27;20227;-85
2023/10/02 11:16:51;;;;;;;9.43;5.03;;;;;;;;;;5124516;27;20705;-86
2023/10/02 11:19:25;;;;;;;6.68;4.97;;;;;;;;;;5124341;27;20319;-85
2023/10/02 11:22:03;;;;;;;7.93;4.82;;;;;;;;;;5130723;27;20289;-85
2023/10/02 11:24:33;;;;;;;12.32;6.00;;;;;;;;;;5124658;27;20797;-85
2023/10/02 11:27:07;;;;;;;7.90;4.63;;;;;;;;;;5124617;27;20204;-86
2023/10/02 11:29:40;;;;;;;6.88;4.50;;;;;;;;;;5127237;27;20291;-86
2023/10/02 11:32:21;;;;;;;8.57;4.85;;;;;;;;;;5128149;27;20588;-85
2023/10/02 11:34:48;;;;;;;10.60;5.18;;;;;;;;;;5127429;27;20225;-86
2023/10/02 11:37:17;;;;;;;6.20;4.65;;;;;;;;;;5127733;27;20219;-85
2023/10/02 11:39:45;;;;;;;6.30;4.28;;;;;;;;;;5126085;27;20227;-86
2023/10/02 11:42:12;;;;;;;8.05;4.63;;;;;;;;;;5119364;27;20267;-86
2023/10/02 11:44:40;;;;;;;8.23;4.82;;;;;;;;;;5127508;27;20218;-86
2023/10/02 11:47:09;;;;;;;8.27;4.80;;;;;;;;;;5127680;27;20210;-86
2023/10/02 11:49:37;;;;;;;9.35;4.80;;;;;;;;;;5115270;27;20689;-86
2023/10/02 11:52:04;;;;;;;9.02;4.93;;;;;;;;;;5123091;27;20211;-84
2023/10/02 11:54:36;;;;;;;9.68;4.72;;;;;;;;;;5124933;27;20236;-86
2023/10/02 11:57:08;;;;;;;10.48;4.43;;;;;;;;;;5126252;27;20645;-86
2023/10/02 11:59:35;;;;;;;7.45;4.90;;;;;;;;;;5122891;27;20688;-86
2023/10/02 12:02:03;;;;;;;9.05;5.07;;;;;;;;;;5123793;27;20211;-86
2023/10/02 12:04:30;;;;;;;9.05;4.95;;;;;;;;;;5126020;27;20234;-87
2023/10/02 12:06:58;;;;;;;9.65;5.80;;;;;;;;;;5127411;27;20195;-87
2023/10/02 12:09:27;;;;;;;8.00;5.18;;;;;;;;;;5124926;27;20255;-86
2023/10/02 12:11:55;;;;;;;8.02;5.10;;;;;;;;;;5123758;27;20287;-87
2023/10/02 12:14:23;;;;;;;7.60;4.82;;;;;;;;;;5124543;27;20645;-86
2023/10/02 12:16:50;;;;;;;8.27;5.20;;;;;;;;;;5126990;27;20260;-86
2023/10/02 12:19:17;;;;;;;9.65;4.43;;;;;;;;;;5125973;27;20231;-86
2023/10/02 12:21:44;;;;;;;7.95;4.85;;;;;;;;;;5127571;27;20736;-89
2023/10/02 12:24:11;;;;;;;8.73;5.40;;;;;;;;;;5127525;27;20284;-89
2023/10/02 12:26:40;;;;;;;7.95;4.93;;;;;;;;;;5132690;27;20211;-88
2023/10/02 12:29:10;;;;;;;8.18;4.53;;;;;;;;;;5123748;27;20235;-89
2023/10/02 12:31:37;;;;;;;9.93;4.75;;;;;;;;;;5127188;27;20704;-89
2023/10/02 12:34:05;;;;;;;8.48;5.07;;;;;;;;;;5127074;27;20280;-89
2023/10/02 12:36:32;;;;;;;9.13;5.45;;;;;;;;;;5125261;27;20258;-88
2023/10/02 12:38:59;;;;;;;10.85;5.45;;;;;;;;;;5123805;27;20639;-89
2023/10/02 12:41:28;;;;;;;8.07;4.80;;;;;;;;;;5132708;27;20219;-86
2023/10/02 12:43:56;;;;;;;8.02;4.75;;;;;;;;;;5124038;27;20232;-88
2023/10/02 12:46:25;;;;;;;9.27;5.13;;;;;;;;;;5123922;27;20687;-88
2023/10/02 12:48:55;;;;;;;10.32;5.15;;;;;;;;;;5123437;27;20227;-88
2023/10/02 12:51:22;;;;;;;8.85;5.38;;;;;;;;;;5124400;27;20204;-88
2023/10/02 12:53:50;;;;;;;10.13;5.45;;;;;;;;;;5122601;27;20215;-86
2023/10/02 12:56:20;;;;;;;14.48;6.03;;;;;;;;;;5126708;27;20219;-88
2023/10/02 12:58:49;;;;;;;9.65;5.35;;;;;;;;;;5132467;27;20237;-88
2023/10/02 13:01:17;;;;;;;9.23;5.38;;;;;;;;;;5136693;27;20223;-87
2023/10/02 13:03:46;;;;;;;9.82;5.18;;;;;;;;;;5141438;27;20239;-88
2023/10/02 13:06:13;;;;;;;8.45;5.25;;;;;;;;;;5127143;27;20200;-88
2023/10/02 13:08:41;;;;;;;9.30;5.45;;;;;;;;;;5125953;27;20199;-88
2023/10/02 13:11:12;;;;;;;8.70;5.43;;;;;;;;;;5123873;27;20219;-85
2023/10/02 13:13:43;;;;;;;10.95;5.85;;;;;;;;;;5126405;27;20226;-85
2023/10/02 13:16:11;;;;;;;12.25;5.28;;;;;;;;;;5126541;27;20235;-85
2023/10/02 13:18:39;;;;;;;9.88;6.00;;;;;;;;;;5126147;27;20286;-85
2023/10/02 13:21:09;;;;;;;12.02;5.55;;;;;;;;;;5126389;27;20319;-86
2023/10/02 13:23:36;;;;;;;8.98;5.72;;;;;;;;;;5123042;27;20286;-86
2023/10/02 13:26:05;;;;;;;8.38;5.15;;;;;;;;;;5122975;28;20211;-86
2023/10/02 13:28:34;;;;;;;8.30;5.20;;;;;;;;;;5124852;27;20557;-86
2023/10/02 13:31:09;;;;;;;9.77;6.05;;;;;;;;;;5136250;28;20223;-87
2023/10/02 13:33:36;;;;;;;8.60;5.45;;;;;;;;;;5124111;27;20214;-86
2023/10/02 13:36:07;;;;;;;9.18;5.75;;;;;;;;;;5129210;28;20203;-86
2023/10/02 13:38:36;;;;;;;10.73;5.68;;;;;;;;;;5123072;27;20248;-85
2023/10/02 13:41:09;;;;;;;12.10;5.90;;;;;;;;;;5122782;28;20220;-85
2023/10/02 13:43:37;;;;;;;10.65;5.93;;;;;;;;;;5124487;27;20208;-86
2023/10/02 13:46:08;;;;;;;9.95;5.93;;;;;;;;;;5126015;27;20203;-85
2023/10/02 13:48:36;;;;;;;11.23;5.90;;;;;;;;;;5123068;28;20211;-85
2023/10/02 13:51:04;;;;;;;12.70;6.43;;;;;;;;;;5122346;28;20232;-85
2023/10/02 13:53:32;;;;;;;13.90;6.55;;;;;;;;;;5130896;28;20215;-85
2023/10/02 13:56:08;;;;;;;12.00;6.82;;;;;;;;;;5122660;28;20579;-85
2023/10/02 13:58:36;;;;;;;11.07;5.75;;;;;;;;;;5124282;27;20249;-85
2023/10/02 14:01:05;;;;;;;10.75;6.70;;;;;;;;;;5128215;27;20224;-86
2023/10/02 14:03:32;;;;;;;12.00;6.88;;;;;;;;;;5126653;27;20287;-86
2023/10/02 14:05:59;;;;;;;12.27;6.53;;;;;;;;;;5129990;27;20203;-85
2023/10/02 14:08:27;;;;;;;11.57;6.20;;;;;;;;;;5120592;27;20210;-85
2023/10/02 14:10:54;;;;;;;11.98;6.80;;;;;;;;;;5129625;27;20248;-85
2023/10/02 14:13:22;;;;;;;11.82;6.55;;;;;;;;;;5130687;27;20203;-85
2023/10/02 14:15:49;;;;;;;11.55;6.28;;;;;;;;;;5130023;27;20215;-84
2023/10/02 14:18:17;;;;;;;11.63;6.25;;;;;;;;;;5130017;27;20250;-85
2023/10/02 14:20:45;;;;;;;13.50;7.35;;;;;;;;;;5125884;27;20255;-86
2023/10/02 14:23:12;;;;;;;11.60;6.55;;;;;;;;;;5125191;27;20235;-86
2023/10/02 14:25:40;;;;;;;14.07;6.68;;;;;;;;;;5127181;27;20285;-85
2023/10/02 14:28:12;;;;;;;10.98;5.53;;;;;;;;;;5129191;27;20207;-87
2023/10/02 14:30:40;;;;;;;12.23;6.90;;;;;;;;;;5128696;27;20228;-86
2023/10/02 14:33:07;;;;;;;11.52;6.15;;;;;;;;;;5129787;27;20673;-87
2023/10/02 14:35:36;;;;;;;10.88;6.90;;;;;;;;;;5135606;27;20235;-86
2023/10/02 14:38:04;;;;;;;12.45;6.18;;;;;;;;;;5125695;27;20265;-85
2023/10/02 14:40:33;;;;;;;12.05;6.63;;;;;;;;;;5126678;27;20238;-86
2023/10/02 14:43:00;;;;;;;10.98;6.13;;;;;;;;;;5129987;27;20634;-85
2023/10/02 14:45:27;;;;;;;12.52;7.07;;;;;;;;;;5128469;27;20275;-85
2023/10/02 14:47:57;;;;;;;11.68;6.00;;;;;;;;;;5123231;27;20191;-85
2023/10/02 14:50:24;;;;;;;11.63;5.90;;;;;;;;;;5127932;27;20780;-85
2023/10/02 14:52:53;;;;;;;11.38;5.78;;;;;;;;;;5125777;27;20206;-86
2023/10/02 14:55:22;;;;;;;12.98;6.65;;;;;;;;;;5124859;27;20705;-85
2023/10/02 14:57:50;;;;;;;11.65;6.75;;;;;;;;;;5120801;27;20215;-86
2023/10/02 15:00:21;;;;;;;12.13;6.45;;;;;;;;;;5128563;27;20338;-87
2023/10/02 15:02:50;;;;;;;13.82;6.88;;;;;;;;;;5117274;27;20234;-87
2023/10/02 15:05:19;;;;;;;12.00;5.78;;;;;;;;;;5125127;27;20230;-86
2023/10/02 15:07:47;;;;;;;11.25;6.72;;;;;;;;;;5128680;27;20306;-85
2023/10/02 15:10:16;;;;;;;11.68;6.10;;;;;;;;;;5127914;27;20234;-85
2023/10/02 15:12:43;;;;;;;11.15;5.82;;;;;;;;;;5125575;27;20211;-85
2023/10/02 15:15:14;;;;;;;11.27;6.60;;;;;;;;;;5131294;27;20231;-85
2023/10/02 15:17:43;;;;;;;11.35;5.85;;;;;;;;;;5128510;27;20261;-86
2023/10/02 15:20:14;;;;;;;10.32;5.75;;;;;;;;;;5127813;27;20669;-85